Time;durP1;ratioP1;P1;durP2;ratioP2;P2;SDS_P1;SDS_P2;PMS_P1;PMS_P2;Temp;Humidity;BMP_temperature;BMP_pressure;BME280_temperature;BME280_humidity;BME280_pressure;Samples;Min_cycle;Max_cycle;Signal;HPM_P1;HPM_P2
2023/08/07 00:05:31;;;;;;;2.70;2.30;;;;;;;14.21;100.00;97773.81;273159;1266;22532;-83
2023/08/07 00:11:55;;;;;;;2.20;2.00;;;;;;;14.21;100.00;97770.05;273263;1269;23068;-83
2023/08/07 00:17:56;;;;;;;4.50;2.20;;;;;;;14.22;100.00;97767.89;273128;1269;22377;-83
2023/08/07 00:23:59;;;;;;;4.50;2.40;;;;;;;14.24;100.00;97769.29;273205;1269;22486;-82
2023/08/07 00:30:02;;;;;;;3.30;2.20;;;;;;;14.26;100.00;97764.06;273332;1257;22167;-83
2023/08/07 00:36:04;;;;;;;5.90;2.20;;;;;;;14.28;100.00;97753.97;272752;1267;418290;-83
2023/08/07 00:42:06;;;;;;;4.50;2.20;;;;;;;14.30;100.00;97757.30;273138;1267;22606;-83
2023/08/07 00:48:08;;;;;;;3.60;2.50;;;;;;;14.30;100.00;97757.05;271508;1267;25220;-83
2023/08/07 00:54:10;;;;;;;10.50;2.40;;;;;;;14.30;100.00;97749.67;272784;1257;22371;-83
2023/08/07 01:00:14;;;;;;;8.40;4.10;;;;;;;14.31;100.00;97746.34;272337;1269;22225;-83
2023/08/07 01:06:15;;;;;;;11.00;3.80;;;;;;;14.32;100.00;97749.61;271385;1269;22403;-83
2023/08/07 01:12:28;;;;;;;8.90;4.20;;;;;;;14.25;100.00;97749.60;271196;1269;23333;-82
2023/08/07 01:18:29;;;;;;;9.30;3.90;;;;;;;14.22;100.00;97753.13;273167;1269;22272;-83
2023/08/07 01:24:32;;;;;;;6.00;3.60;;;;;;;14.27;100.00;97754.63;273070;1269;23296;-83
2023/08/07 01:30:38;;;;;;;4.20;2.80;;;;;;;14.28;100.00;97746.41;273169;1269;22488;-83
2023/08/07 01:36:40;;;;;;;2.90;2.30;;;;;;;14.26;100.00;97748.23;272893;1269;22514;-83
2023/08/07 01:42:43;;;;;;;6.30;3.10;;;;;;;14.20;100.00;97750.48;273025;1269;22283;-83
2023/08/07 01:48:44;;;;;;;3.90;2.00;;;;;;;14.17;100.00;97751.04;271571;1268;22538;-84
2023/08/07 01:54:48;;;;;;;2.50;1.90;;;;;;;14.13;100.00;97750.33;273080;1269;22281;-83
2023/08/07 02:00:50;;;;;;;2.90;1.60;;;;;;;14.04;100.00;97756.67;273219;1253;22260;-82
2023/08/07 02:06:51;;;;;;;5.60;2.20;;;;;;;13.98;100.00;97759.26;273208;1269;22184;-83
2023/08/07 02:12:57;;;;;;;3.40;2.10;;;;;;;13.98;100.00;97760.34;273014;1269;22324;-83
2023/08/07 02:18:59;;;;;;;4.80;2.60;;;;;;;14.01;100.00;97760.61;272160;1259;22376;-82
2023/08/07 02:25:00;;;;;;;5.70;2.80;;;;;;;13.98;100.00;97767.10;273123;1269;22395;-82
2023/08/07 02:31:02;;;;;;;5.30;1.90;;;;;;;13.94;100.00;97769.63;273352;1259;22185;-83
2023/08/07 02:37:04;;;;;;;2.40;2.00;;;;;;;13.96;100.00;97770.84;271791;1269;22354;-84
2023/08/07 02:43:05;;;;;;;3.40;2.20;;;;;;;13.94;100.00;97770.56;273063;1269;22383;-83
2023/08/07 02:49:07;;;;;;;3.50;1.90;;;;;;;13.90;100.00;97768.70;272472;1253;22890;-83
2023/08/07 02:55:09;;;;;;;2.80;2.20;;;;;;;13.82;100.00;97770.13;270736;1259;22380;-83
2023/08/07 03:01:11;;;;;;;3.20;2.40;;;;;;;13.78;100.00;97770.35;271668;1268;23136;-83
2023/08/07 03:07:13;;;;;;;3.00;2.00;;;;;;;13.71;100.00;97770.13;273164;1269;22314;-83
2023/08/07 03:13:15;;;;;;;4.10;2.50;;;;;;;13.66;100.00;97776.75;273470;1269;22179;-83
2023/08/07 03:19:19;;;;;;;4.80;2.40;;;;;;;13.71;100.00;97780.35;273289;1269;23423;-83
2023/08/07 03:25:22;;;;;;;5.40;2.50;;;;;;;13.74;100.00;97786.23;273173;1267;22293;-83
2023/08/07 03:31:24;;;;;;;3.80;2.80;;;;;;;13.75;100.00;97786.53;273702;1266;22797;-84
2023/08/07 03:37:29;;;;;;;7.10;2.90;;;;;;;13.75;100.00;97791.09;273300;1265;22192;-83
2023/08/07 03:43:31;;;;;;;3.50;2.70;;;;;;;13.78;100.00;97797.79;273241;1258;22391;-83
2023/08/07 03:49:33;;;;;;;3.70;2.70;;;;;;;13.84;100.00;97803.86;273211;1260;22498;-83
2023/08/07 03:55:35;;;;;;;5.40;3.30;;;;;;;13.90;100.00;97808.69;273201;1259;22470;-83
2023/08/07 04:01:37;;;;;;;4.40;2.90;;;;;;;13.96;100.00;97812.35;273276;1269;22404;-83
2023/08/07 04:07:38;;;;;;;5.10;2.50;;;;;;;14.03;100.00;97817.15;273347;1269;22182;-83
2023/08/07 04:13:40;;;;;;;3.10;2.10;;;;;;;14.09;100.00;97823.77;273250;1261;23061;-83
2023/08/07 04:19:42;;;;;;;2.80;2.30;;;;;;;14.16;100.00;97825.52;272612;1257;22381;-83
2023/08/07 04:25:43;;;;;;;3.40;1.90;;;;;;;14.25;100.00;97820.63;273044;1253;22542;-83
2023/08/07 04:31:45;;;;;;;3.40;2.20;;;;;;;14.32;100.00;97816.94;273501;1269;22922;-83
2023/08/07 04:37:47;;;;;;;6.90;2.60;;;;;;;14.39;100.00;97826.62;272888;1261;22403;-83
2023/08/07 04:43:48;;;;;;;2.10;1.80;;;;;;;14.46;100.00;97829.60;273358;1268;22179;-83
2023/08/07 04:49:50;;;;;;;3.40;1.60;;;;;;;14.55;100.00;97832.86;273177;1269;22352;-83
2023/08/07 04:55:52;;;;;;;5.30;1.80;;;;;;;14.61;100.00;97827.74;272679;1262;22467;-82
2023/08/07 05:01:53;;;;;;;2.00;1.30;;;;;;;14.65;100.00;97828.52;271988;1268;23967;-82
2023/08/07 05:07:55;;;;;;;3.80;1.70;;;;;;;14.67;100.00;97832.95;272034;1257;22304;-83
2023/08/07 05:13:59;;;;;;;2.20;1.20;;;;;;;14.69;100.00;97837.64;273213;1256;22389;-83
2023/08/07 05:20:00;;;;;;;2.10;0.90;;;;;;;14.72;100.00;97844.86;271315;1259;22395;-81
2023/08/07 05:26:04;;;;;;;2.00;0.90;;;;;;;14.75;100.00;97846.32;273078;1269;22179;-82
2023/08/07 05:32:06;;;;;;;1.70;1.00;;;;;;;14.77;100.00;97847.67;273214;1257;22900;-84
2023/08/07 05:38:08;;;;;;;7.90;1.00;;;;;;;14.80;100.00;97851.45;273202;1259;22265;-82
2023/08/07 05:44:10;;;;;;;4.30;1.00;;;;;;;14.82;100.00;97858.59;273082;1268;23532;-82
2023/08/07 05:50:11;;;;;;;1.50;0.90;;;;;;;14.86;100.00;97865.34;273324;1269;22225;-82
2023/08/07 05:56:13;;;;;;;1.30;0.80;;;;;;;14.92;100.00;97867.15;273326;1265;22226;-82
2023/08/07 06:02:14;;;;;;;1.40;0.80;;;;;;;14.97;100.00;97866.70;272547;1257;22211;-81
2023/08/07 06:08:16;;;;;;;4.80;0.90;;;;;;;15.01;100.00;97873.77;273178;1255;22375;-83
2023/08/07 06:14:18;;;;;;;1.80;0.60;;;;;;;15.01;100.00;97879.13;271906;1256;22174;-83
2023/08/07 06:20:20;;;;;;;6.20;1.10;;;;;;;15.03;100.00;97886.80;271924;1269;22504;-82
2023/08/07 06:26:22;;;;;;;1.10;0.80;;;;;;;15.08;100.00;97891.88;270759;1257;22291;-81
2023/08/07 06:32:25;;;;;;;1.50;0.60;;;;;;;15.16;100.00;97895.71;270675;1259;22592;-82
2023/08/07 06:38:27;;;;;;;1.00;0.50;;;;;;;15.20;100.00;97896.84;270543;1262;23455;-82
2023/08/07 06:44:29;;;;;;;1.40;0.40;;;;;;;15.26;100.00;97896.70;270995;1259;22559;-82
2023/08/07 06:50:31;;;;;;;3.90;1.10;;;;;;;15.39;100.00;97897.11;270295;1269;24514;-83
2023/08/07 06:56:33;;;;;;;4.10;1.10;;;;;;;15.53;100.00;97895.90;272409;1269;22303;-83
2023/08/07 07:02:34;;;;;;;3.00;1.30;;;;;;;15.67;100.00;97893.48;273082;1269;22477;-83
2023/08/07 07:08:36;;;;;;;1.10;0.80;;;;;;;15.81;100.00;97900.44;272618;1269;22407;-83
2023/08/07 07:14:38;;;;;;;3.40;1.70;;;;;;;15.94;100.00;97905.59;271278;1269;23101;-83
2023/08/07 07:20:40;;;;;;;3.40;1.10;;;;;;;16.02;100.00;97907.41;270602;1269;22527;-82
2023/08/07 07:26:41;;;;;;;2.00;0.90;;;;;;;16.08;100.00;97912.45;273000;1269;22205;-82
2023/08/07 07:32:43;;;;;;;0.30;0.30;;;;;;;16.15;100.00;97918.95;271520;1259;22219;-82
2023/08/07 07:38:46;;;;;;;2.10;0.50;;;;;;;16.24;100.00;97925.41;272769;1269;22418;-83
2023/08/07 07:44:47;;;;;;;0.60;0.30;;;;;;;16.28;100.00;97931.85;271617;1262;22532;-82
2023/08/07 07:50:49;;;;;;;3.20;0.50;;;;;;;16.24;100.00;97940.79;271467;1269;22590;-82
2023/08/07 07:56:51;;;;;;;2.10;0.50;;;;;;;16.25;100.00;97944.14;272882;1269;25346;-82
2023/08/07 08:02:53;;;;;;;0.80;0.20;;;;;;;16.30;100.00;97946.95;272488;1269;22331;-81
2023/08/07 08:08:55;;;;;;;0.90;0.40;;;;;;;16.29;100.00;97949.80;272057;1257;22541;-81
2023/08/07 08:14:58;;;;;;;0.90;0.30;;;;;;;16.29;100.00;97958.88;272361;1257;22564;-82
2023/08/07 08:21:00;;;;;;;3.70;0.30;;;;;;;16.37;100.00;97963.70;272242;1269;22549;-82
2023/08/07 08:27:02;;;;;;;1.40;0.50;;;;;;;16.43;100.00;97965.29;272019;1258;22592;-81
2023/08/07 08:33:05;;;;;;;1.00;0.50;;;;;;;16.54;100.00;97963.23;273192;1269;22407;-81
2023/08/07 08:39:07;;;;;;;2.20;0.30;;;;;;;16.81;100.00;97962.44;272670;1254;22603;-81
2023/08/07 08:45:10;;;;;;;0.60;0.40;;;;;;;17.03;100.00;97968.08;272175;1263;26235;-81
2023/08/07 08:51:13;;;;;;;2.50;0.80;;;;;;;17.01;100.00;97969.80;272437;1260;22541;-81
2023/08/07 08:57:15;;;;;;;2.20;1.00;;;;;;;17.07;100.00;97973.15;271699;1263;22545;-83
2023/08/07 09:03:18;;;;;;;3.50;1.20;;;;;;;17.20;100.00;97979.48;271471;1269;23122;-82
2023/08/07 09:09:22;;;;;;;3.60;0.60;;;;;;;17.33;100.00;97980.25;272129;1259;23828;-82
2023/08/07 09:15:24;;;;;;;1.20;0.40;;;;;;;17.35;100.00;97981.77;271874;1269;22559;-81
2023/08/07 09:21:27;;;;;;;4.40;0.50;;;;;;;17.24;100.00;97987.63;272349;1269;22449;-81
2023/08/07 09:27:30;;;;;;;2.10;0.40;;;;;;;17.14;100.00;97988.44;272629;1269;22700;-80
2023/08/07 09:33:32;;;;;;;2.40;0.70;;;;;;;17.23;100.00;97991.25;271588;1269;22581;-81
2023/08/07 09:39:37;;;;;;;0.40;0.20;;;;;;;17.42;100.00;97993.41;272482;1264;23450;-81
2023/08/07 09:45:40;;;;;;;0.20;0.20;;;;;;;17.57;100.00;97993.81;272124;1269;23616;-80
2023/08/07 09:51:46;;;;;;;0.70;0.20;;;;;;;17.78;100.00;97997.86;272489;1269;22246;-80
2023/08/07 09:57:48;;;;;;;0.40;0.30;;;;;;;17.93;100.00;98006.83;271141;1269;23102;-79
2023/08/07 10:03:50;;;;;;;0.50;0.30;;;;;;;17.86;100.00;98009.04;272074;1269;22548;-80
2023/08/07 10:09:53;;;;;;;0.40;0.20;;;;;;;17.84;100.00;98007.69;272445;1260;22298;-80
2023/08/07 10:15:54;;;;;;;0.20;0.20;;;;;;;17.83;100.00;98011.35;273014;1256;22121;-79
2023/08/07 10:22:02;;;;;;;1.80;0.30;;;;;;;17.81;100.00;98012.21;271992;1256;22573;-79
2023/08/07 10:28:06;;;;;;;2.20;0.50;;;;;;;17.82;100.00;98010.98;270297;1269;22650;-81
2023/08/07 10:34:08;;;;;;;1.80;0.80;;;;;;;17.71;100.00;98014.52;270732;1258;22635;-82
2023/08/07 10:40:11;;;;;;;1.80;0.30;;;;;;;17.99;100.00;98015.47;271225;1269;23829;-82
2023/08/07 10:46:15;;;;;;;1.40;0.50;;;;;;;18.89;100.00;98007.16;271868;1269;22562;-81
2023/08/07 10:52:17;;;;;;;0.50;0.30;;;;;;;19.01;100.00;98010.30;270698;1260;22554;-82
2023/08/07 10:58:23;;;;;;;2.60;0.50;;;;;;;18.69;100.00;98014.60;271567;1269;22512;-82
2023/08/07 11:04:26;;;;;;;0.50;0.40;;;;;;;18.28;100.00;98023.75;271561;1269;24400;-82
2023/08/07 11:10:29;;;;;;;0.40;0.30;;;;;;;18.22;100.00;98024.59;272912;1269;22553;-80
2023/08/07 11:16:36;;;;;;;2.80;0.40;;;;;;;18.23;100.00;98031.05;272475;1269;22546;-81
2023/08/07 11:22:37;;;;;;;1.00;0.30;;;;;;;18.11;100.00;98034.05;271132;1262;22528;-82
2023/08/07 11:28:39;;;;;;;0.80;0.60;;;;;;;18.36;100.00;98037.44;271064;1269;23578;-82
2023/08/07 11:34:48;;;;;;;0.70;0.40;;;;;;;18.63;100.00;98050.77;271301;1267;22528;-81
2023/08/07 11:40:53;;;;;;;2.70;0.60;;;;;;;18.25;100.00;98062.38;272616;1258;22331;-84
2023/08/07 11:46:55;;;;;;;2.50;0.50;;;;;;;17.70;100.00;98068.55;272480;1269;22577;-81
2023/08/07 11:53:00;;;;;;;1.70;0.60;;;;;;;17.31;100.00;98078.41;272103;1269;22122;-81
2023/08/07 11:59:02;;;;;;;1.70;0.60;;;;;;;17.11;100.00;98082.14;271399;1256;22244;-81
2023/08/07 12:05:08;;;;;;;3.00;0.50;;;;;;;17.07;100.00;98089.14;270806;1269;23122;-83
2023/08/07 12:11:13;;;;;;;1.00;0.60;;;;;;;16.89;100.00;98097.72;271358;1269;22499;-82
2023/08/07 12:17:16;;;;;;;0.60;0.50;;;;;;;16.67;100.00;98106.86;271639;1259;22486;-82
2023/08/07 12:23:20;;;;;;;1.50;0.70;;;;;;;16.53;100.00;98113.23;272949;1267;22356;-83
2023/08/07 12:29:23;;;;;;;2.10;1.00;;;;;;;16.44;100.00;98120.80;273187;1259;22347;-82
2023/08/07 12:35:25;;;;;;;1.10;0.80;;;;;;;16.33;100.00;98130.31;272685;1269;498363;-84
2023/08/07 12:41:26;;;;;;;3.10;1.40;;;;;;;16.02;100.00;98154.59;272052;1265;22432;-83
2023/08/07 12:47:28;;;;;;;3.40;1.80;;;;;;;15.63;100.00;98166.21;270836;1262;22637;-82
2023/08/07 12:53:31;;;;;;;5.40;1.80;;;;;;;15.36;100.00;98175.91;271944;1260;22197;-81
2023/08/07 12:59:33;;;;;;;5.10;2.40;;;;;;;15.24;100.00;98177.11;273293;1269;22448;-83
2023/08/07 13:05:35;;;;;;;4.80;1.60;;;;;;;15.28;100.00;98176.71;273291;1269;22361;-82
2023/08/07 13:11:36;;;;;;;3.60;2.00;;;;;;;15.39;100.00;98182.17;270839;1269;22571;-81
2023/08/07 13:17:39;;;;;;;3.70;1.80;;;;;;;15.57;100.00;98186.67;270027;1269;22544;-82
2023/08/07 13:23:41;;;;;;;3.00;1.70;;;;;;;15.74;100.00;98192.84;272965;1268;22356;-83
2023/08/07 13:29:43;;;;;;;2.90;1.60;;;;;;;15.89;100.00;98199.23;273265;1257;23170;-83
2023/08/07 13:35:45;;;;;;;4.00;2.40;;;;;;;16.04;100.00;98205.33;270837;1257;24256;-82
2023/08/07 13:41:47;;;;;;;4.10;2.20;;;;;;;16.16;100.00;98210.41;270465;1269;22645;-83
2023/08/07 13:47:49;;;;;;;6.10;2.60;;;;;;;16.11;100.00;98221.52;269897;1269;22724;-82
2023/08/07 13:53:52;;;;;;;3.90;2.10;;;;;;;16.03;100.00;98229.19;269798;1260;23887;-82
2023/08/07 13:59:54;;;;;;;4.20;2.40;;;;;;;15.97;100.00;98232.88;269692;1269;22524;-82
2023/08/07 14:05:56;;;;;;;4.80;2.80;;;;;;;15.95;100.00;98238.52;270986;1259;23758;-82
2023/08/07 14:11:58;;;;;;;6.90;3.00;;;;;;;15.95;100.00;98240.33;270419;1260;23367;-82
2023/08/07 14:17:59;;;;;;;6.50;2.00;;;;;;;15.80;100.00;98235.45;271587;1257;22550;-82
2023/08/07 14:24:01;;;;;;;5.00;2.20;;;;;;;15.64;100.00;98242.24;272667;1257;22224;-83
2023/08/07 14:30:03;;;;;;;4.10;2.10;;;;;;;15.53;100.00;98240.35;272286;1267;22374;-81
2023/08/07 14:36:05;;;;;;;4.70;2.10;;;;;;;15.52;100.00;98236.04;273171;1269;22323;-82
2023/08/07 14:42:07;;;;;;;6.60;4.40;;;;;;;15.56;100.00;98232.95;271390;1269;22459;-81
2023/08/07 14:48:08;;;;;;;6.10;2.80;;;;;;;15.66;100.00;98241.83;270833;1260;22535;-79
2023/08/07 14:54:10;;;;;;;3.20;2.30;;;;;;;15.75;100.00;98244.79;273176;1258;22343;-81
2023/08/07 15:00:12;;;;;;;6.70;3.10;;;;;;;15.81;100.00;98251.27;273349;1269;22433;-81
2023/08/07 15:06:14;;;;;;;4.80;2.70;;;;;;;15.82;100.00;98257.34;271823;1269;22561;-80
2023/08/07 15:12:16;;;;;;;2.90;1.80;;;;;;;15.70;100.00;98256.56;271891;1269;22164;-82
2023/08/07 15:18:17;;;;;;;3.80;2.00;;;;;;;15.55;100.00;98262.55;271749;1266;22208;-82
2023/08/07 15:24:19;;;;;;;3.20;1.90;;;;;;;15.50;100.00;98265.88;273451;1269;22495;-82
2023/08/07 15:30:21;;;;;;;3.60;2.20;;;;;;;15.49;100.00;98269.29;273226;1260;22326;-82
2023/08/07 15:36:23;;;;;;;3.80;1.90;;;;;;;15.45;100.00;98271.27;273407;1269;22364;-81
2023/08/07 15:42:24;;;;;;;3.20;2.40;;;;;;;15.44;100.00;98280.73;272906;1269;22351;-82
2023/08/07 15:48:26;;;;;;;4.10;2.00;;;;;;;15.50;100.00;98288.02;273405;1269;22476;-82
2023/08/07 15:54:27;;;;;;;6.00;2.00;;;;;;;15.58;100.00;98297.31;272442;1269;24203;-81
2023/08/07 16:00:30;;;;;;;2.70;1.80;;;;;;;15.62;100.00;98303.92;272976;1259;22542;-82
2023/08/07 16:06:31;;;;;;;2.30;1.70;;;;;;;15.60;100.00;98310.98;273343;1257;22278;-82
2023/08/07 16:12:34;;;;;;;4.10;1.90;;;;;;;15.55;100.00;98314.48;271215;1269;22621;-82
2023/08/07 16:18:36;;;;;;;3.80;2.00;;;;;;;15.55;100.00;98321.80;271023;1269;22531;-81
2023/08/07 16:24:39;;;;;;;4.60;2.00;;;;;;;15.57;100.00;98325.54;270008;1269;25438;-82
2023/08/07 16:30:40;;;;;;;4.10;2.20;;;;;;;15.63;100.00;98331.02;271258;1261;25242;-82
2023/08/07 16:36:42;;;;;;;3.60;2.40;;;;;;;15.65;100.00;98335.40;271762;1257;23649;-81
2023/08/07 16:42:44;;;;;;;4.90;2.10;;;;;;;15.65;100.00;98333.12;273025;1269;22536;-81
2023/08/07 16:48:46;;;;;;;3.80;2.50;;;;;;;15.62;100.00;98339.46;272721;1260;22194;-82
2023/08/07 16:54:49;;;;;;;3.20;1.90;;;;;;;15.59;100.00;98339.22;271213;1269;22583;-81
2023/08/07 17:00:51;;;;;;;7.00;2.20;;;;;;;15.55;100.00;98339.23;271564;1257;22332;-81
2023/08/07 17:06:52;;;;;;;7.30;2.50;;;;;;;15.53;100.00;98339.19;272257;1269;23221;-82
2023/08/07 17:12:55;;;;;;;5.70;2.70;;;;;;;15.54;100.00;98341.38;272442;1269;24315;-82
2023/08/07 17:18:59;;;;;;;6.70;2.40;;;;;;;15.56;100.00;98348.04;273118;1269;22541;-82
2023/08/07 17:25:01;;;;;;;6.20;2.30;;;;;;;15.56;100.00;98354.11;272576;1257;22228;-81
2023/08/07 17:31:03;;;;;;;6.10;2.80;;;;;;;15.51;100.00;98361.13;273016;1265;23193;-82
2023/08/07 17:37:05;;;;;;;4.50;2.50;;;;;;;15.46;100.00;98367.54;271240;1259;23605;-82
2023/08/07 17:43:07;;;;;;;9.50;3.30;;;;;;;15.38;100.00;98374.38;265654;1269;10001328;-83
2023/08/07 17:49:09;;;;;;;3.90;2.40;;;;;;;15.29;100.00;98382.46;273139;1263;22853;-82
2023/08/07 17:55:12;;;;;;;6.10;3.30;;;;;;;15.21;100.00;98387.01;273305;1259;22382;-82
2023/08/07 18:01:13;;;;;;;7.40;2.50;;;;;;;15.15;100.00;98390.98;273299;1269;22490;-83
2023/08/07 18:07:16;;;;;;;5.30;3.10;;;;;;;15.09;100.00;98385.95;273280;1269;22302;-81
2023/08/07 18:13:18;;;;;;;5.80;2.50;;;;;;;15.00;100.00;98387.83;273379;1261;23889;-83
2023/08/07 18:19:20;;;;;;;3.40;2.50;;;;;;;14.94;100.00;98394.46;273253;1260;22470;-81
2023/08/07 18:25:21;;;;;;;5.00;2.60;;;;;;;14.84;100.00;98400.92;273343;1269;22419;-82
2023/08/07 18:31:25;;;;;;;7.70;2.30;;;;;;;14.77;100.00;98420.23;273392;1268;22382;-82
2023/08/07 18:37:26;;;;;;;6.00;2.40;;;;;;;14.72;100.00;98431.58;273211;1269;22347;-82
2023/08/07 18:43:28;;;;;;;5.10;2.50;;;;;;;14.67;100.00;98434.01;272563;1269;22203;-82
2023/08/07 18:49:31;;;;;;;5.40;2.20;;;;;;;14.61;100.00;98440.14;272675;1269;22201;-82
2023/08/07 18:55:34;;;;;;;3.80;2.80;;;;;;;14.56;100.00;98443.21;272975;1255;23459;-83
2023/08/07 19:01:35;;;;;;;3.70;2.40;;;;;;;14.47;100.00;98444.82;272143;1269;23665;-83
2023/08/07 19:07:37;;;;;;;3.80;2.50;;;;;;;14.41;100.00;98454.58;273155;1269;22409;-81
2023/08/07 19:13:39;;;;;;;6.30;3.00;;;;;;;14.36;100.00;98458.49;273146;1269;22921;-82
2023/08/07 19:19:40;;;;;;;9.70;4.40;;;;;;;14.32;100.00;98456.42;272767;1259;22377;-82
2023/08/07 19:25:42;;;;;;;10.00;3.90;;;;;;;14.28;100.00;98461.82;273094;1269;22379;-82
2023/08/07 19:31:44;;;;;;;12.50;4.30;;;;;;;14.25;100.00;98472.70;273124;1269;22341;-81
2023/08/07 19:37:47;;;;;;;6.50;3.90;;;;;;;14.23;100.00;98480.65;272302;1259;22566;-82
2023/08/07 19:43:49;;;;;;;7.80;4.00;;;;;;;14.20;100.00;98492.56;272935;1269;22299;-82
2023/08/07 19:49:51;;;;;;;11.50;3.50;;;;;;;14.20;100.00;98498.77;273137;1269;22402;-81
2023/08/07 19:55:53;;;;;;;6.30;3.40;;;;;;;14.22;100.00;98503.95;272753;1266;22389;-82
2023/08/07 20:01:54;;;;;;;10.00;3.60;;;;;;;14.27;100.00;98511.54;272019;1269;22505;-82
2023/08/07 20:07:56;;;;;;;6.50;3.10;;;;;;;14.28;100.00;98510.36;272609;1269;22234;-82
2023/08/07 20:13:58;;;;;;;6.00;2.30;;;;;;;14.30;100.00;98514.10;272675;1269;22222;-81
2023/08/07 20:20:00;;;;;;;5.90;2.80;;;;;;;14.34;100.00;98522.01;273216;1269;22207;-82
2023/08/07 20:26:02;;;;;;;3.50;2.00;;;;;;;14.38;100.00;98523.30;271125;1269;22517;-82
2023/08/07 20:32:04;;;;;;;5.10;1.90;;;;;;;14.42;100.00;98525.14;270816;1257;22563;-81
2023/08/07 20:38:06;;;;;;;5.50;2.00;;;;;;;14.45;100.00;98533.67;270891;1263;22476;-81
2023/08/07 20:44:07;;;;;;;3.90;2.10;;;;;;;14.48;100.00;98540.27;271983;1269;24374;-82
2023/08/07 20:50:09;;;;;;;5.80;2.70;;;;;;;14.49;100.00;98542.83;272369;1269;23814;-82
2023/08/07 20:56:11;;;;;;;4.00;2.10;;;;;;;14.55;100.00;98548.75;272130;1257;22524;-80
2023/08/07 21:02:13;;;;;;;6.00;2.20;;;;;;;14.56;100.00;98552.36;272228;1259;22295;-82
2023/08/07 21:08:15;;;;;;;6.60;2.30;;;;;;;14.55;100.00;98558.82;271153;1269;22223;-82
2023/08/07 21:14:16;;;;;;;5.10;1.50;;;;;;;14.55;100.00;98558.73;270646;1269;24156;-81
2023/08/07 21:20:18;;;;;;;4.20;1.50;;;;;;;14.55;100.00;98560.64;270581;1259;22584;-82
2023/08/07 21:26:20;;;;;;;5.40;2.20;;;;;;;14.54;100.00;98564.73;272011;1269;23359;-80
2023/08/07 21:32:21;;;;;;;3.60;1.20;;;;;;;14.53;100.00;98566.47;272333;1269;23344;-80
2023/08/07 21:38:24;;;;;;;1.90;0.90;;;;;;;14.56;100.00;98571.48;271629;1265;23774;-81
2023/08/07 21:44:26;;;;;;;2.80;1.00;;;;;;;14.57;100.00;98580.52;271236;1268;22556;-82
2023/08/07 21:50:27;;;;;;;4.60;1.10;;;;;;;14.58;100.00;98582.49;271896;1269;22646;-81
2023/08/07 21:56:29;;;;;;;5.70;1.40;;;;;;;14.56;100.00;98584.14;271211;1253;22468;-81
2023/08/07 22:02:31;;;;;;;3.00;1.00;;;;;;;14.56;100.00;98585.96;272071;1269;22384;-82
2023/08/07 22:08:32;;;;;;;2.40;1.20;;;;;;;14.54;100.00;98591.42;272041;1257;22343;-82
2023/08/07 22:14:34;;;;;;;4.70;1.60;;;;;;;14.53;100.00;98596.31;272908;1267;22177;-81
2023/08/07 22:20:37;;;;;;;3.20;1.90;;;;;;;14.52;100.00;98602.61;272983;1269;24176;-81
2023/08/07 22:26:40;;;;;;;3.90;1.10;;;;;;;14.52;100.00;98601.52;273155;1269;22348;-82
2023/08/07 22:32:42;;;;;;;8.50;1.60;;;;;;;14.50;100.00;98607.43;271576;1269;22756;-82
2023/08/07 22:38:44;;;;;;;6.50;1.50;;;;;;;14.45;100.00;98617.33;272211;1269;23584;-82
2023/08/07 22:44:45;;;;;;;5.20;2.10;;;;;;;14.42;100.00;98616.88;270782;1269;26542;-82
2023/08/07 22:50:47;;;;;;;5.80;1.60;;;;;;;14.42;100.00;98616.50;270288;1269;22585;-82
2023/08/07 22:56:48;;;;;;;3.60;1.30;;;;;;;14.39;100.00;98621.86;270376;1269;22404;-81
2023/08/07 23:02:50;;;;;;;5.10;1.00;;;;;;;14.36;100.00;98621.98;272691;1259;22605;-82
2023/08/07 23:08:52;;;;;;;2.90;1.00;;;;;;;14.35;100.00;98620.65;270412;1256;22633;-81
2023/08/07 23:14:53;;;;;;;2.80;1.00;;;;;;;14.32;100.00;98633.73;270597;1258;22600;-82
2023/08/07 23:20:55;;;;;;;1.70;0.80;;;;;;;14.31;100.00;98637.92;270492;1257;22655;-81
2023/08/07 23:26:57;;;;;;;2.20;0.80;;;;;;;14.29;100.00;98637.23;270447;1259;24205;-82
2023/08/07 23:32:59;;;;;;;1.90;1.00;;;;;;;14.28;100.00;98640.40;269972;1269;23208;-82
2023/08/07 23:39:01;;;;;;;5.70;0.90;;;;;;;14.27;100.00;98642.21;271693;1256;22203;-81
2023/08/07 23:45:03;;;;;;;1.80;0.90;;;;;;;14.26;100.00;98643.70;272191;1259;25382;-82
2023/08/07 23:51:05;;;;;;;2.80;1.00;;;;;;;14.26;100.00;98650.08;272016;1257;22609;-82
2023/08/07 23:57:07;;;;;;;4.20;1.20;;;;;;;14.27;100.00;98656.91;272495;1256;22366;-82
